createdAt,value
2018-07-01T00:01:58.072Z,14.37
2018-07-01T00:04:28.452Z,14.46
2018-07-01T00:06:59.226Z,14.46
2018-07-01T00:09:29.705Z,14.50
2018-07-01T00:12:00.117Z,14.51
2018-07-01T00:14:31.023Z,14.50
2018-07-01T00:17:01.558Z,14.46
2018-07-01T00:19:32.575Z,14.40
2018-07-01T00:22:03.462Z,14.33
2018-07-01T00:24:34.029Z,14.28
2018-07-01T00:27:04.349Z,14.23
2018-07-01T00:29:35.075Z,14.13
2018-07-01T00:32:05.461Z,14.16
2018-07-01T00:34:36.110Z,13.95
2018-07-01T00:37:07.187Z,13.94
2018-07-01T00:39:37.675Z,13.80
2018-07-01T00:42:08.437Z,13.67
2018-07-01T00:44:39.324Z,13.75
2018-07-01T00:47:09.684Z,13.72
2018-07-01T00:49:44.994Z,13.72
2018-07-01T00:52:15.738Z,13.66
2018-07-01T00:54:46.376Z,13.59
2018-07-01T00:57:16.941Z,13.51
2018-07-01T00:59:47.442Z,13.40
2018-07-01T01:02:18.320Z,13.27
2018-07-01T01:04:49.253Z,13.18
2018-07-01T01:07:19.789Z,13.06
2018-07-01T01:10:04.336Z,12.98
2018-07-01T01:12:35.122Z,12.88
2018-07-01T01:15:05.945Z,12.84
2018-07-01T01:17:35.997Z,12.72
2018-07-01T01:20:06.773Z,12.75
2018-07-01T01:22:38.118Z,12.67
2018-07-01T01:25:08.324Z,12.60
2018-07-01T01:27:38.627Z,12.42
2018-07-01T01:30:09.441Z,12.35
2018-07-01T01:32:40.587Z,12.39
2018-07-01T01:35:12.190Z,12.35
2018-07-01T01:37:43.060Z,12.32
2018-07-01T01:40:15.055Z,12.27
2018-07-01T01:42:52.586Z,12.10
2018-07-01T01:45:43.009Z,12.17
2018-07-01T01:48:22.042Z,12.11
2018-07-01T01:50:59.012Z,12.07
2018-07-01T01:54:34.533Z,11.99
2018-07-01T01:57:12.453Z,11.88
2018-07-01T01:59:47.341Z,11.78
2018-07-01T02:03:24.198Z,11.70
2018-07-01T02:05:59.942Z,11.57
2018-07-01T02:08:35.068Z,11.50
2018-07-01T02:11:05.737Z,11.45
2018-07-01T02:13:38.037Z,11.49
2018-07-01T02:16:11.754Z,11.48
2018-07-01T02:18:42.508Z,11.51
2018-07-01T02:21:13.217Z,11.58
2018-07-01T02:23:50.514Z,11.60
2018-07-01T02:26:21.490Z,11.55
2018-07-01T02:28:52.051Z,11.49
2018-07-01T02:31:22.705Z,11.46
2018-07-01T02:33:53.226Z,11.37
2018-07-01T02:36:24.357Z,11.37
2018-07-01T02:38:56.401Z,11.31
2018-07-01T02:41:27.287Z,11.31
2018-07-01T02:43:57.855Z,11.27
2018-07-01T02:46:28.521Z,11.20
2018-07-01T02:48:59.105Z,11.12
2018-07-01T02:51:29.482Z,11.05
2018-07-01T02:54:00.267Z,11.01
2018-07-01T02:56:30.966Z,10.94
2018-07-01T02:59:01.620Z,10.87
2018-07-01T03:01:32.391Z,10.83
2018-07-01T03:04:02.809Z,10.84
2018-07-01T03:06:33.593Z,10.79
2018-07-01T03:09:04.789Z,10.76
2018-07-01T03:11:35.445Z,10.73
2018-07-01T03:14:06.114Z,10.69
2018-07-01T03:16:37.053Z,10.68
2018-07-01T03:19:07.720Z,10.66
2018-07-01T03:21:38.536Z,10.45
2018-07-01T03:24:09.569Z,10.59
2018-07-01T03:26:39.992Z,10.53
2018-07-01T03:29:10.821Z,10.35
2018-07-01T03:31:41.706Z,10.44
2018-07-01T03:34:12.333Z,10.41
2018-07-01T03:36:42.845Z,10.38
2018-07-01T03:39:13.366Z,10.37
2018-07-01T03:41:44.400Z,10.34
2018-07-01T03:44:15.211Z,10.35
2018-07-01T03:46:45.763Z,10.35
2018-07-01T03:49:16.978Z,10.41
2018-07-01T03:51:47.873Z,10.44
2018-07-01T03:54:18.281Z,10.46
2018-07-01T03:56:49.369Z,10.40
2018-07-01T03:59:20.242Z,9.69
2018-07-01T04:01:50.610Z,10.55
2018-07-01T04:04:21.375Z,10.60
2018-07-01T04:06:51.718Z,10.65
2018-07-01T04:09:22.191Z,10.69
2018-07-01T04:11:52.706Z,10.74
2018-07-01T04:14:23.597Z,10.76
2018-07-01T04:16:54.056Z,10.82
2018-07-01T04:19:29.949Z,10.77
2018-07-01T04:22:01.251Z,10.94
2018-07-01T04:24:31.914Z,11.00
2018-07-01T04:27:02.404Z,11.07
2018-07-01T04:29:33.653Z,11.16
2018-07-01T04:32:04.622Z,11.24
2018-07-01T04:34:35.131Z,11.35
2018-07-01T04:37:05.885Z,11.43
2018-07-01T04:39:36.333Z,11.47
2018-07-01T04:42:07.139Z,11.47
2018-07-01T04:44:37.681Z,11.60
2018-07-01T04:47:08.057Z,11.68
2018-07-01T04:49:38.953Z,11.72
2018-07-01T04:52:09.355Z,11.78
2018-07-01T04:54:39.829Z,11.83
2018-07-01T04:57:10.340Z,11.86
2018-07-01T04:59:41.067Z,11.88
2018-07-01T05:02:11.425Z,11.91
2018-07-01T05:04:42.126Z,11.95
2018-07-01T05:07:13.114Z,11.79
2018-07-01T05:09:43.562Z,12.06
2018-07-01T05:12:14.110Z,12.16
2018-07-01T05:14:44.973Z,12.24
2018-07-01T05:17:15.552Z,12.30
2018-07-01T05:19:46.302Z,12.36
2018-07-01T05:22:17.890Z,12.42
2018-07-01T05:24:48.497Z,12.47
2018-07-01T05:27:19.022Z,12.53
2018-07-01T05:29:49.694Z,12.60
2018-07-01T05:32:20.165Z,12.68
2018-07-01T05:34:50.765Z,12.78
2018-07-01T05:37:25.961Z,12.87
2018-07-01T05:39:56.497Z,12.95
2018-07-01T05:42:27.081Z,13.01
2018-07-01T05:44:58.112Z,13.10
2018-07-01T05:47:28.599Z,13.27
2018-07-01T05:49:59.713Z,13.40
2018-07-01T05:52:30.550Z,13.60
2018-07-01T05:55:01.137Z,13.73
2018-07-01T05:57:32.026Z,13.82
2018-07-01T06:00:02.525Z,13.98
2018-07-01T06:02:38.207Z,14.15
2018-07-01T06:05:10.789Z,14.34
2018-07-01T06:07:41.241Z,14.50
2018-07-01T06:12:47.213Z,14.70
2018-07-01T06:15:18.312Z,14.84
2018-07-01T06:17:48.778Z,14.89
2018-07-01T06:20:19.265Z,15.08
2018-07-01T06:22:50.214Z,15.17
2018-07-01T06:25:20.694Z,15.32
2018-07-01T06:27:51.232Z,15.34
2018-07-01T06:30:21.757Z,15.54
2018-07-01T06:32:52.519Z,15.59
2018-07-01T06:35:27.209Z,15.67
2018-07-01T06:37:57.621Z,15.67
2018-07-01T06:40:28.026Z,15.91
2018-07-01T06:42:58.541Z,16.13
2018-07-01T06:45:29.341Z,16.23
2018-07-01T06:47:59.830Z,16.28
2018-07-01T06:50:30.223Z,16.40
2018-07-01T06:53:01.182Z,16.61
2018-07-01T06:55:34.973Z,16.63
2018-07-01T06:58:05.661Z,16.71
2018-07-01T07:00:36.797Z,16.81
2018-07-01T07:03:07.272Z,16.97
2018-07-01T07:05:37.818Z,17.15
2018-07-01T07:08:08.893Z,17.22
2018-07-01T07:10:39.541Z,17.25
2018-07-01T07:13:09.934Z,17.47
2018-07-01T07:15:41.005Z,17.86
2018-07-01T07:18:11.411Z,18.12
2018-07-01T07:20:42.085Z,18.53
2018-07-01T07:23:12.586Z,18.91
2018-07-01T07:25:42.741Z,19.31
2018-07-01T07:28:13.755Z,19.55
2018-07-01T07:30:43.819Z,19.71
2018-07-01T07:33:14.326Z,19.81
2018-07-01T07:35:44.738Z,19.87
2018-07-01T07:38:15.268Z,20.00
2018-07-01T07:40:45.770Z,20.06
2018-07-01T07:43:16.632Z,20.31
2018-07-01T07:45:46.669Z,20.63
2018-07-01T07:48:17.139Z,20.65
2018-07-01T07:50:48.068Z,20.79
2018-07-01T07:53:19.281Z,21.00
2018-07-01T07:55:49.473Z,21.02
2018-07-01T07:58:20.152Z,20.84
2018-07-01T08:00:50.413Z,21.34
2018-07-01T08:03:20.811Z,21.47
2018-07-01T08:05:51.239Z,21.72
2018-07-01T08:08:21.836Z,21.98
2018-07-01T08:10:53.474Z,22.17
2018-07-01T08:13:25.565Z,22.31
2018-07-01T08:15:55.665Z,22.38
2018-07-01T08:18:27.386Z,22.36
2018-07-01T08:20:57.469Z,22.25
2018-07-01T08:23:27.869Z,22.58
2018-07-01T08:25:58.397Z,22.83
2018-07-01T08:28:29.006Z,23.01
2018-07-01T08:30:59.213Z,22.94
2018-07-01T08:33:29.636Z,23.11
2018-07-01T08:35:59.725Z,23.13
2018-07-01T08:38:30.273Z,23.26
2018-07-01T08:41:01.715Z,23.33
2018-07-01T08:43:31.841Z,23.45
2018-07-01T08:46:02.029Z,23.52
2018-07-01T08:48:32.353Z,23.66
2018-07-01T08:51:02.525Z,23.77
2018-07-01T08:53:32.721Z,23.67
2018-07-01T08:56:03.109Z,23.58
2018-07-01T08:58:33.170Z,23.73
2018-07-01T09:01:03.913Z,23.83
2018-07-01T09:03:34.257Z,23.94
2018-07-01T09:06:04.811Z,24.08
2018-07-01T09:08:35.220Z,24.13
2018-07-01T09:11:06.118Z,24.29
2018-07-01T09:13:36.193Z,24.43
2018-07-01T09:16:06.546Z,24.64
2018-07-01T09:18:37.045Z,24.96
2018-07-01T09:21:07.169Z,25.13
2018-07-01T09:23:37.283Z,25.23
2018-07-01T09:26:08.005Z,25.36
2018-07-01T09:28:38.166Z,25.32
2018-07-01T09:31:08.738Z,25.28
2018-07-01T09:33:39.578Z,25.11
2018-07-01T09:36:13.685Z,24.91
2018-07-01T09:38:44.329Z,25.07
2018-07-01T09:41:14.424Z,25.05
2018-07-01T09:43:44.489Z,25.27
2018-07-01T09:46:14.950Z,25.40
2018-07-01T09:48:44.973Z,25.78
2018-07-01T09:51:15.493Z,25.95
2018-07-01T09:53:45.890Z,26.22
2018-07-01T09:56:16.343Z,26.23
2018-07-01T09:58:46.468Z,26.26
2018-07-01T10:01:16.785Z,26.31
2018-07-01T10:03:46.845Z,26.30
2018-07-01T10:06:17.062Z,26.33
2018-07-01T10:08:47.777Z,26.25
2018-07-01T10:11:17.817Z,26.27
2018-07-01T10:13:47.916Z,26.57
2018-07-01T10:16:18.925Z,26.61
2018-07-01T10:18:49.491Z,26.63
2018-07-01T10:21:19.695Z,26.26
2018-07-01T10:23:51.921Z,26.13
2018-07-01T10:26:22.036Z,26.66
2018-07-01T10:29:10.881Z,26.57
2018-07-01T10:31:42.777Z,27.02
2018-07-01T10:34:13.761Z,27.20
2018-07-01T10:36:44.006Z,27.34
2018-07-01T10:39:17.193Z,27.47
2018-07-01T10:41:47.539Z,27.32
2018-07-01T10:44:17.621Z,27.34
2018-07-01T10:46:48.249Z,27.13
2018-07-01T10:49:18.520Z,27.07
2018-07-01T10:51:53.064Z,27.38
2018-07-01T10:54:23.927Z,27.37
2018-07-01T10:56:54.021Z,27.44
2018-07-01T10:59:24.192Z,27.44
2018-07-01T11:01:55.263Z,27.37
2018-07-01T11:04:25.572Z,27.57
2018-07-01T11:06:55.981Z,28.06
2018-07-01T11:09:26.424Z,28.08
2018-07-01T11:11:56.633Z,27.99
2018-07-01T11:14:26.768Z,28.16
2018-07-01T11:16:57.399Z,28.21
2018-07-01T11:19:27.441Z,28.39
2018-07-01T11:21:57.604Z,28.50
2018-07-01T11:24:28.785Z,28.62
2018-07-01T11:26:59.087Z,28.71
2018-07-01T11:29:30.025Z,28.54
2018-07-01T11:32:00.337Z,28.91
2018-07-01T11:34:30.493Z,29.00
2018-07-01T11:37:00.748Z,28.69
2018-07-01T11:39:31.692Z,28.55
2018-07-01T11:42:03.883Z,28.04
2018-07-01T11:44:34.045Z,27.91
2018-07-01T11:47:04.631Z,28.15
2018-07-01T11:49:35.321Z,28.09
2018-07-01T11:52:05.442Z,28.26
2018-07-01T11:54:35.695Z,28.33
2018-07-01T11:57:05.923Z,28.22
2018-07-01T11:59:36.105Z,28.49
2018-07-01T12:02:06.405Z,28.46
2018-07-01T12:04:36.581Z,28.14
2018-07-01T12:07:06.816Z,28.33
2018-07-01T12:09:36.908Z,28.46
2018-07-01T12:12:07.826Z,28.36
2018-07-01T12:14:38.213Z,28.27
2018-07-01T12:17:08.354Z,28.18
2018-07-01T12:19:38.455Z,28.22
2018-07-01T12:22:09.359Z,28.52
2018-07-01T12:24:39.653Z,28.73
2018-07-01T12:27:10.141Z,28.77
2018-07-01T12:29:41.100Z,28.78
2018-07-01T12:32:11.182Z,28.84
2018-07-01T12:34:41.255Z,28.99
2018-07-01T12:37:11.633Z,28.88
2018-07-01T12:39:41.738Z,28.54
2018-07-01T12:42:12.405Z,28.49
2018-07-01T12:44:43.113Z,28.17
2018-07-01T12:47:13.428Z,28.30
2018-07-01T12:49:43.482Z,28.23
2018-07-01T12:52:14.125Z,28.42
2018-07-01T12:54:45.010Z,28.69
2018-07-01T12:57:15.638Z,28.60
2018-07-01T12:59:46.501Z,28.31
2018-07-01T13:02:16.889Z,28.06
2018-07-01T13:04:47.042Z,28.03
2018-07-01T13:07:17.471Z,28.51
2018-07-01T13:09:47.542Z,28.92
2018-07-01T13:12:17.595Z,29.05
2018-07-01T13:14:48.082Z,29.12
2018-07-01T13:17:19.066Z,29.05
2018-07-01T13:19:49.177Z,28.80
2018-07-01T13:22:19.836Z,28.88
2018-07-01T13:24:49.912Z,28.76
2018-07-01T13:27:20.038Z,28.94
2018-07-01T13:29:50.429Z,29.20
2018-07-01T13:32:20.677Z,29.36
2018-07-01T13:34:50.745Z,29.34
2018-07-01T13:37:21.190Z,29.32
2018-07-01T13:39:51.306Z,29.31
2018-07-01T13:42:21.437Z,29.16
2018-07-01T13:44:52.037Z,29.18
2018-07-01T13:47:22.493Z,29.26
2018-07-01T13:49:52.563Z,29.17
2018-07-01T13:52:22.967Z,29.09
2018-07-01T13:54:53.135Z,29.09
2018-07-01T13:57:23.244Z,29.01
2018-07-01T13:59:53.612Z,29.09
2018-07-01T14:02:23.654Z,29.04
2018-07-01T14:04:58.885Z,29.25
2018-07-01T14:07:29.349Z,29.26
2018-07-01T14:09:59.430Z,29.18
2018-07-01T14:12:29.534Z,29.14
2018-07-01T14:14:59.911Z,29.19
2018-07-01T14:17:30.112Z,29.02
2018-07-01T14:20:00.402Z,28.87
2018-07-01T14:22:30.868Z,28.79
2018-07-01T14:25:01.101Z,28.80
2018-07-01T14:27:31.241Z,28.77
2018-07-01T14:30:01.634Z,28.69
2018-07-01T14:32:31.810Z,28.56
2018-07-01T14:35:02.295Z,28.67
2018-07-01T14:37:32.799Z,28.65
2018-07-01T14:40:03.381Z,28.56
2018-07-01T14:42:33.473Z,28.44
2018-07-01T14:45:03.815Z,28.51
2018-07-01T14:47:34.201Z,28.56
2018-07-01T14:50:04.452Z,28.69
2018-07-01T14:52:35.857Z,28.67
2018-07-01T14:55:06.381Z,28.48
2018-07-01T14:57:36.814Z,28.33
2018-07-01T15:00:07.844Z,28.17
2018-07-01T15:02:38.408Z,28.05
2018-07-01T15:05:08.909Z,27.90
2018-07-01T15:07:39.537Z,27.61
2018-07-01T15:10:09.674Z,27.66
2018-07-01T15:12:39.797Z,27.69
2018-07-01T15:15:10.766Z,27.80
2018-07-01T15:17:41.300Z,27.84
2018-07-01T15:20:11.442Z,27.73
2018-07-01T15:22:42.258Z,27.82
2018-07-01T15:25:12.354Z,27.89
2018-07-01T15:27:42.389Z,27.90
2018-07-01T15:30:14.255Z,27.98
2018-07-01T15:32:44.374Z,28.12
2018-07-01T15:35:14.769Z,28.11
2018-07-01T15:37:45.137Z,28.05
2018-07-01T15:40:15.258Z,27.89
2018-07-01T15:42:45.597Z,27.79
2018-07-01T15:45:15.977Z,27.63
2018-07-01T15:47:46.069Z,27.67
2018-07-01T15:50:16.097Z,27.68
2018-07-01T15:52:47.086Z,27.72
2018-07-01T15:55:17.163Z,27.72
2018-07-01T15:57:47.230Z,27.63
2018-07-01T16:00:17.661Z,27.59
2018-07-01T16:02:48.173Z,27.52
2018-07-01T16:05:19.269Z,27.27
2018-07-01T16:07:49.597Z,27.37
2018-07-01T16:10:19.674Z,27.32
2018-07-01T16:12:49.778Z,27.30
2018-07-01T16:15:20.182Z,27.28
2018-07-01T16:17:50.325Z,27.23
2018-07-01T16:20:20.539Z,27.10
2018-07-01T16:22:50.959Z,27.05
2018-07-01T16:25:25.967Z,26.97
2018-07-01T16:28:01.131Z,26.97
2018-07-01T16:30:31.239Z,27.00
2018-07-01T16:33:01.321Z,27.03
2018-07-01T16:35:32.110Z,27.04
2018-07-01T16:38:02.254Z,26.92
2018-07-01T16:40:32.681Z,26.85
2018-07-01T16:43:03.094Z,26.63
2018-07-01T16:45:33.175Z,26.54
2018-07-01T16:48:03.527Z,26.46
2018-07-01T16:50:33.925Z,26.48
2018-07-01T16:53:04.642Z,26.56
2018-07-01T16:55:34.717Z,26.63
2018-07-01T16:58:05.194Z,26.59
2018-07-01T17:00:35.365Z,26.55
2018-07-01T17:05:45.242Z,26.43
2018-07-01T17:08:15.319Z,26.42
2018-07-01T17:10:45.365Z,26.34
2018-07-01T17:13:15.673Z,26.37
2018-07-01T17:15:45.777Z,26.37
2018-07-01T17:18:15.861Z,26.38
2018-07-01T17:20:46.209Z,26.36
2018-07-01T17:23:16.281Z,26.38
2018-07-01T17:25:51.381Z,26.21
2018-07-01T17:28:26.905Z,26.09
2018-07-01T17:31:01.811Z,25.97
2018-07-01T17:33:34.195Z,25.95
2018-07-01T17:36:04.321Z,25.86
2018-07-01T17:38:34.533Z,25.82
2018-07-01T17:41:05.042Z,25.68
2018-07-01T17:43:35.102Z,25.21
2018-07-01T17:46:05.239Z,25.40
2018-07-01T17:48:35.777Z,25.47
2018-07-01T17:51:05.898Z,25.53
2018-07-01T17:53:46.098Z,25.51
2018-07-01T17:56:16.712Z,25.52
2018-07-01T17:58:47.001Z,25.53
2018-07-01T18:01:17.357Z,25.54
2018-07-01T18:03:47.750Z,25.50
2018-07-01T18:06:17.857Z,25.40
2018-07-01T18:08:47.921Z,25.42
2018-07-01T18:11:21.182Z,25.40
2018-07-01T18:13:51.269Z,25.39
2018-07-01T18:16:22.489Z,25.31
2018-07-01T18:18:52.910Z,25.25
2018-07-01T18:21:23.229Z,25.20
2018-07-01T18:24:11.129Z,25.14
2018-07-01T18:26:25.762Z,25.00
2018-07-01T18:29:05.470Z,24.69
2018-07-01T18:31:27.051Z,24.78
2018-07-01T18:34:00.113Z,24.72
2018-07-01T18:36:30.327Z,24.66
2018-07-01T18:39:00.699Z,24.50
2018-07-01T18:41:31.441Z,24.33
2018-07-01T18:44:01.918Z,24.02
2018-07-01T18:46:32.353Z,23.76
2018-07-01T18:49:02.475Z,23.49
2018-07-01T18:51:32.526Z,23.27
2018-07-01T18:54:03.925Z,23.19
2018-07-01T18:56:34.428Z,23.05
2018-07-01T18:59:04.545Z,22.86
2018-07-01T19:01:35.289Z,22.84
2018-07-01T19:04:05.535Z,22.72
2018-07-01T19:06:35.609Z,22.62
2018-07-01T19:09:07.686Z,22.50
2018-07-01T19:11:37.767Z,22.41
2018-07-01T19:14:07.882Z,22.30
2018-07-01T19:16:38.230Z,22.21
2018-07-01T19:19:08.332Z,22.03
2018-07-01T19:21:38.643Z,22.01
2018-07-01T19:24:09.401Z,21.91
2018-07-01T19:26:39.534Z,21.79
2018-07-01T19:29:09.601Z,21.63
2018-07-01T19:31:39.937Z,21.53
2018-07-01T19:34:11.154Z,21.34
2018-07-01T19:36:41.549Z,21.43
2018-07-01T19:39:12.510Z,21.36
2018-07-01T19:41:43.522Z,21.18
2018-07-01T19:44:14.126Z,21.17
2018-07-01T19:46:44.347Z,20.94
2018-07-01T19:49:15.333Z,20.92
2018-07-01T19:51:45.955Z,20.94
2018-07-01T19:54:15.969Z,20.85
2018-07-01T19:56:46.191Z,20.67
2018-07-01T19:59:16.583Z,20.67
2018-07-01T20:01:46.831Z,20.60
2018-07-01T20:04:17.733Z,20.51
2018-07-01T20:06:48.098Z,20.44
2018-07-01T20:09:18.209Z,20.33
2018-07-01T20:11:48.341Z,20.24
2018-07-01T20:14:18.708Z,20.15
2018-07-01T20:16:48.889Z,20.03
2018-07-01T20:19:18.943Z,19.85
2018-07-01T20:21:49.284Z,19.84
2018-07-01T20:24:19.346Z,19.75
2018-07-01T20:26:49.405Z,19.67
2018-07-01T20:30:43.761Z,19.60
2018-07-01T20:33:13.833Z,19.38
2018-07-01T20:35:48.453Z,19.22
2018-07-01T20:38:18.694Z,19.28
2018-07-01T20:40:49.414Z,19.19
2018-07-01T20:43:19.564Z,19.10
2018-07-01T20:45:49.869Z,19.03
2018-07-01T20:48:20.380Z,18.96
2018-07-01T20:50:50.617Z,18.90
2018-07-01T20:53:20.818Z,18.85
2018-07-01T20:55:51.178Z,18.70
2018-07-01T20:58:21.285Z,18.73
2018-07-01T21:00:51.401Z,18.64
2018-07-01T21:03:21.752Z,18.56
2018-07-01T21:05:51.893Z,18.42
2018-07-01T21:08:25.036Z,18.42
2018-07-01T21:10:55.633Z,18.33
2018-07-01T21:13:25.777Z,18.25
2018-07-01T21:15:56.810Z,18.09
2018-07-01T21:18:27.268Z,18.01
2018-07-01T21:20:59.367Z,17.98
2018-07-01T21:23:29.449Z,17.76
2018-07-01T21:25:59.913Z,17.71
2018-07-01T21:28:29.973Z,17.50
2018-07-01T21:31:00.109Z,17.40
2018-07-01T21:33:30.471Z,17.42
2018-07-01T21:36:00.669Z,17.28
2018-07-01T21:38:30.840Z,17.29
2018-07-01T21:41:01.308Z,17.20
2018-07-01T21:43:31.973Z,17.11
2018-07-01T21:46:02.240Z,17.07
2018-07-01T21:48:32.940Z,17.00
2018-07-01T21:51:03.619Z,16.86
2018-07-01T21:53:33.801Z,16.88
2018-07-01T21:56:04.660Z,16.80
2018-07-01T21:58:35.390Z,16.74
2018-07-01T22:01:07.281Z,16.67
2018-07-01T22:03:37.434Z,16.59
2018-07-01T22:06:08.868Z,16.55
2018-07-01T22:08:39.644Z,16.50
2018-07-01T22:11:30.905Z,16.41
2018-07-01T22:14:23.674Z,16.34
2018-07-01T22:16:53.778Z,16.31
2018-07-01T22:19:24.377Z,16.23
2018-07-01T22:21:55.313Z,16.13
2018-07-01T22:24:29.911Z,16.06
2018-07-01T22:27:00.385Z,15.78
2018-07-01T22:29:30.961Z,15.83
2018-07-01T22:32:02.017Z,15.72
2018-07-01T22:34:32.495Z,15.63
2018-07-01T22:37:03.040Z,15.58
2018-07-01T22:39:33.289Z,15.57
2018-07-01T22:42:03.797Z,15.55
2018-07-01T22:44:34.255Z,15.53
2018-07-01T22:47:04.461Z,15.50
2018-07-01T22:49:35.613Z,15.49
2018-07-01T22:52:05.836Z,15.41
2018-07-01T22:54:36.059Z,15.45
2018-07-01T22:57:06.669Z,15.26
2018-07-01T23:03:16.769Z,15.15
2018-07-01T23:09:09.829Z,14.98
2018-07-01T23:11:40.648Z,14.93
2018-07-01T23:14:10.793Z,14.90
2018-07-01T23:16:41.234Z,14.81
2018-07-01T23:19:11.734Z,14.89
2018-07-01T23:21:41.853Z,14.88
2018-07-01T23:24:12.977Z,14.80
2018-07-01T23:26:43.209Z,14.71
2018-07-01T23:29:13.293Z,14.63
2018-07-01T23:31:43.922Z,14.57
2018-07-01T23:34:14.348Z,14.55
2018-07-01T23:36:44.441Z,14.52
2018-07-01T23:39:14.701Z,14.47
2018-07-01T23:41:45.685Z,14.41
2018-07-01T23:44:16.389Z,14.11
2018-07-01T23:46:46.690Z,13.73
2018-07-01T23:49:17.031Z,13.63
2018-07-01T23:51:47.209Z,13.85
2018-07-01T23:54:17.741Z,13.95
2018-07-01T23:56:48.570Z,13.91
2018-07-01T23:59:19.770Z,13.85
